createdAt,value
2017-11-22T00:00:19.834Z,19.80
2017-11-22T00:01:24.906Z,19.80
2017-11-22T00:02:30.434Z,19.80
2017-11-22T00:03:37.264Z,19.80
2017-11-22T00:04:42.928Z,19.80
2017-11-22T00:05:48.462Z,19.80
2017-11-22T00:06:53.632Z,19.80
2017-11-22T00:07:59.040Z,19.80
2017-11-22T00:09:05.070Z,19.80
2017-11-22T00:10:10.110Z,19.80
2017-11-22T00:11:14.972Z,19.80
2017-11-22T00:12:19.843Z,19.80
2017-11-22T00:13:25.035Z,19.80
2017-11-22T00:14:30.035Z,19.80
2017-11-22T00:15:35.293Z,19.80
2017-11-22T00:16:40.464Z,19.80
2017-11-22T00:17:45.668Z,19.80
2017-11-22T00:18:51.359Z,19.80
2017-11-22T00:19:57.044Z,19.80
2017-11-22T00:21:02.365Z,19.80
2017-11-22T00:22:07.670Z,19.80
2017-11-22T00:23:12.851Z,19.80
2017-11-22T00:24:18.140Z,19.80
2017-11-22T00:25:23.480Z,19.80
2017-11-22T00:26:29.375Z,19.80
2017-11-22T00:27:34.457Z,19.80
2017-11-22T00:28:39.759Z,19.80
2017-11-22T00:29:44.820Z,19.80
2017-11-22T00:30:50.181Z,19.80
2017-11-22T00:31:55.491Z,19.80
2017-11-22T00:33:01.397Z,19.80
2017-11-22T00:34:07.174Z,19.80
2017-11-22T00:35:12.256Z,19.80
2017-11-22T00:36:19.416Z,19.80
2017-11-22T00:37:24.338Z,19.80
2017-11-22T00:38:29.235Z,19.80
2017-11-22T00:39:34.042Z,19.80
2017-11-22T00:40:38.792Z,19.80
2017-11-22T00:41:43.733Z,19.70
2017-11-22T00:42:48.459Z,19.80
2017-11-22T00:43:53.160Z,19.80
2017-11-22T00:44:57.796Z,19.70
2017-11-22T00:46:02.723Z,19.70
2017-11-22T00:47:07.610Z,19.70
2017-11-22T00:48:12.380Z,19.70
2017-11-22T00:49:17.458Z,19.70
2017-11-22T00:50:22.375Z,19.70
2017-11-22T00:51:27.216Z,19.70
2017-11-22T00:52:32.543Z,19.70
2017-11-22T00:53:37.882Z,19.70
2017-11-22T00:54:42.946Z,19.70
2017-11-22T00:55:47.760Z,19.70
2017-11-22T00:56:52.488Z,19.70
2017-11-22T00:57:57.277Z,19.70
2017-11-22T00:59:02.520Z,19.70
2017-11-22T01:00:07.144Z,19.70
2017-11-22T01:01:11.897Z,19.70
2017-11-22T01:02:16.883Z,19.70
2017-11-22T01:03:21.754Z,19.70
2017-11-22T01:04:26.709Z,19.70
2017-11-22T01:05:31.490Z,19.70
2017-11-22T01:06:36.358Z,19.70
2017-11-22T01:07:41.163Z,19.70
2017-11-22T01:08:46.114Z,19.70
2017-11-22T01:09:50.926Z,19.70
2017-11-22T01:10:55.687Z,19.70
2017-11-22T01:12:00.301Z,19.70
2017-11-22T01:13:05.147Z,19.70
2017-11-22T01:14:09.924Z,19.70
2017-11-22T01:15:14.728Z,19.70
2017-11-22T01:16:19.483Z,19.70
2017-11-22T01:17:24.234Z,19.70
2017-11-22T01:18:29.006Z,19.70
2017-11-22T01:19:33.921Z,19.70
2017-11-22T01:20:38.559Z,19.70
2017-11-22T01:21:44.047Z,19.70
2017-11-22T01:22:48.682Z,19.70
2017-11-22T01:23:53.279Z,19.70
2017-11-22T01:24:58.087Z,19.70
2017-11-22T01:26:03.116Z,19.70
2017-11-22T01:27:07.771Z,19.70
2017-11-22T01:28:12.428Z,19.70
2017-11-22T01:29:17.216Z,19.70
2017-11-22T01:30:21.842Z,19.70
2017-11-22T01:31:27.309Z,19.70
2017-11-22T01:32:32.231Z,19.70
2017-11-22T01:33:36.992Z,19.70
2017-11-22T01:34:41.769Z,19.70
2017-11-22T01:35:46.496Z,19.70
2017-11-22T01:36:51.193Z,19.70
2017-11-22T01:37:56.034Z,19.70
2017-11-22T01:39:00.656Z,19.70
2017-11-22T01:40:05.436Z,19.70
2017-11-22T01:41:10.227Z,19.70
2017-11-22T01:42:14.884Z,19.70
2017-11-22T01:43:19.618Z,19.70
2017-11-22T01:44:24.374Z,19.70
2017-11-22T01:45:29.018Z,19.70
2017-11-22T01:46:33.872Z,19.70
2017-11-22T01:47:38.683Z,19.70
2017-11-22T01:48:43.572Z,19.70
2017-11-22T01:49:48.162Z,19.70
2017-11-22T01:50:52.944Z,19.70
2017-11-22T01:51:57.727Z,19.70
2017-11-22T01:53:02.510Z,19.70
2017-11-22T01:54:07.162Z,19.70
2017-11-22T01:55:11.767Z,19.70
2017-11-22T01:56:16.742Z,19.70
2017-11-22T01:57:21.346Z,19.70
2017-11-22T01:58:26.029Z,19.70
2017-11-22T01:59:30.818Z,19.70
2017-11-22T02:00:35.450Z,19.70
2017-11-22T02:01:40.067Z,19.70
2017-11-22T02:02:44.953Z,19.70
2017-11-22T02:03:49.676Z,19.70
2017-11-22T02:04:54.476Z,19.70
2017-11-22T02:05:59.275Z,19.70
2017-11-22T02:07:04.062Z,19.70
2017-11-22T02:08:08.854Z,19.70
2017-11-22T02:09:13.544Z,19.70
2017-11-22T02:10:18.436Z,19.70
2017-11-22T02:11:23.236Z,19.70
2017-11-22T02:12:28.772Z,19.70
2017-11-22T02:13:33.567Z,19.70
2017-11-22T02:14:38.393Z,19.60
2017-11-22T02:15:43.346Z,19.70
2017-11-22T02:16:48.115Z,19.70
2017-11-22T02:17:53.102Z,19.70
2017-11-22T02:18:58.444Z,19.60
2017-11-22T02:20:03.220Z,19.70
2017-11-22T02:21:08.379Z,19.70
2017-11-22T02:22:13.133Z,19.70
2017-11-22T02:23:17.919Z,19.70
2017-11-22T02:24:22.785Z,19.70
2017-11-22T02:25:27.540Z,19.70
2017-11-22T02:26:32.141Z,19.70
2017-11-22T02:27:37.580Z,19.60
2017-11-22T02:28:42.367Z,19.70
2017-11-22T02:29:47.247Z,19.70
2017-11-22T02:30:52.064Z,19.70
2017-11-22T02:31:56.711Z,19.70
2017-11-22T02:33:01.533Z,19.70
2017-11-22T02:34:06.324Z,19.60
2017-11-22T02:35:11.229Z,19.70
2017-11-22T02:36:15.893Z,19.70
2017-11-22T02:37:20.633Z,19.70
2017-11-22T02:38:25.334Z,19.70
2017-11-22T02:39:30.221Z,19.70
2017-11-22T02:40:35.023Z,19.70
2017-11-22T02:41:39.631Z,19.70
2017-11-22T02:42:44.442Z,19.70
2017-11-22T02:43:49.190Z,19.70
2017-11-22T02:44:53.799Z,19.70
2017-11-22T02:45:58.691Z,19.70
2017-11-22T02:47:03.365Z,19.70
2017-11-22T02:48:08.117Z,19.70
2017-11-22T02:49:12.714Z,19.70
2017-11-22T02:50:19.418Z,19.70
2017-11-22T02:51:24.017Z,19.70
2017-11-22T02:52:28.661Z,19.70
2017-11-22T02:53:33.439Z,19.70
2017-11-22T02:54:38.239Z,19.70
2017-11-22T02:55:43.013Z,19.70
2017-11-22T02:56:47.617Z,19.70
2017-11-22T02:57:52.383Z,19.70
2017-11-22T02:58:57.215Z,19.70
2017-11-22T03:00:01.927Z,19.60
2017-11-22T03:01:06.799Z,19.70
2017-11-22T03:02:11.339Z,19.60
2017-11-22T03:03:16.132Z,19.60
2017-11-22T03:04:20.894Z,19.60
2017-11-22T03:05:25.605Z,19.60
2017-11-22T03:06:30.326Z,19.60
2017-11-22T03:07:35.061Z,19.60
2017-11-22T03:08:39.793Z,19.70
2017-11-22T03:09:44.551Z,19.70
2017-11-22T03:10:49.426Z,19.60
2017-11-22T03:11:54.319Z,19.70
2017-11-22T03:12:59.160Z,19.60
2017-11-22T03:14:03.981Z,19.60
2017-11-22T03:15:08.563Z,19.60
2017-11-22T03:16:13.172Z,19.60
2017-11-22T03:17:18.078Z,19.60
2017-11-22T03:18:22.902Z,19.60
2017-11-22T03:19:27.642Z,19.60
2017-11-22T03:20:32.358Z,19.70
2017-11-22T03:21:37.150Z,19.60
2017-11-22T03:22:41.883Z,19.60
2017-11-22T03:23:46.619Z,19.60
2017-11-22T03:24:51.254Z,19.60
2017-11-22T03:25:56.180Z,19.60
2017-11-22T03:27:00.896Z,19.60
2017-11-22T03:28:05.640Z,19.60
2017-11-22T03:29:10.521Z,19.60
2017-11-22T03:30:15.335Z,19.60
2017-11-22T03:31:20.226Z,19.60
2017-11-22T03:32:25.014Z,19.60
2017-11-22T03:33:30.297Z,19.60
2017-11-22T03:34:35.038Z,19.60
2017-11-22T03:35:39.753Z,19.60
2017-11-22T03:36:44.537Z,19.60
2017-11-22T03:37:49.437Z,19.60
2017-11-22T03:38:54.177Z,19.60
2017-11-22T03:39:59.339Z,19.60
2017-11-22T03:41:04.479Z,19.60
2017-11-22T03:42:09.363Z,19.70
2017-11-22T03:43:13.942Z,19.60
2017-11-22T03:44:18.732Z,19.60
2017-11-22T03:45:23.522Z,19.60
2017-11-22T03:46:28.167Z,19.60
2017-11-22T03:47:32.941Z,19.60
2017-11-22T03:48:37.884Z,19.60
2017-11-22T03:49:43.174Z,19.60
2017-11-22T03:50:47.811Z,19.60
2017-11-22T03:51:52.715Z,19.60
2017-11-22T03:52:57.644Z,19.60
2017-11-22T03:54:02.555Z,19.60
2017-11-22T03:55:07.432Z,19.60
2017-11-22T03:56:12.174Z,19.60
2017-11-22T03:57:17.098Z,19.60
2017-11-22T03:58:22.840Z,19.60
2017-11-22T03:59:28.366Z,19.60
2017-11-22T04:00:32.953Z,19.60
2017-11-22T04:01:37.729Z,19.60
2017-11-22T04:02:42.336Z,19.60
2017-11-22T04:03:47.086Z,19.60
2017-11-22T04:04:51.908Z,19.60
2017-11-22T04:05:56.599Z,19.60
2017-11-22T04:07:02.012Z,19.60
2017-11-22T04:08:06.756Z,19.60
2017-11-22T04:09:11.749Z,19.60
2017-11-22T04:10:16.404Z,19.60
2017-11-22T04:11:21.381Z,19.60
2017-11-22T04:12:26.324Z,19.60
2017-11-22T04:13:31.081Z,19.60
2017-11-22T04:14:35.876Z,19.60
2017-11-22T04:15:40.515Z,19.60
2017-11-22T04:16:45.099Z,19.60
2017-11-22T04:17:50.069Z,19.60
2017-11-22T04:18:54.848Z,19.60
2017-11-22T04:19:59.624Z,19.60
2017-11-22T04:21:04.559Z,19.60
2017-11-22T04:22:09.989Z,19.60
2017-11-22T04:23:16.300Z,19.60
2017-11-22T04:24:21.670Z,19.60
2017-11-22T04:25:26.657Z,19.60
2017-11-22T04:26:31.818Z,19.60
2017-11-22T04:27:36.879Z,19.60
2017-11-22T04:28:43.158Z,19.60
2017-11-22T04:29:48.120Z,19.70
2017-11-22T04:30:53.354Z,19.70
2017-11-22T04:31:58.711Z,19.70
2017-11-22T04:33:03.765Z,19.70
2017-11-22T04:34:09.753Z,19.70
2017-11-22T04:35:14.696Z,19.70
2017-11-22T04:36:19.880Z,19.70
2017-11-22T04:37:24.975Z,19.70
2017-11-22T04:38:31.082Z,19.70
2017-11-22T04:39:37.390Z,19.70
2017-11-22T04:40:43.001Z,19.60
2017-11-22T04:41:48.266Z,19.70
2017-11-22T04:42:53.313Z,19.70
2017-11-22T04:43:58.394Z,19.70
2017-11-22T04:45:03.508Z,19.70
2017-11-22T04:46:08.775Z,19.70
2017-11-22T04:47:13.940Z,19.70
2017-11-22T04:48:19.022Z,19.70
2017-11-22T04:49:24.198Z,19.70
2017-11-22T04:50:29.464Z,19.60
2017-11-22T04:51:34.986Z,19.60
2017-11-22T04:52:40.222Z,19.70
2017-11-22T04:53:45.241Z,19.70
2017-11-22T04:54:50.161Z,19.70
2017-11-22T04:55:55.162Z,19.60
2017-11-22T04:57:01.288Z,19.70
2017-11-22T04:58:06.607Z,19.70
2017-11-22T04:59:12.894Z,19.60
2017-11-22T05:00:18.049Z,19.70
2017-11-22T05:01:23.203Z,19.70
2017-11-22T05:02:28.590Z,19.70
2017-11-22T05:03:33.626Z,19.70
2017-11-22T05:04:39.559Z,19.70
2017-11-22T05:05:44.609Z,19.70
2017-11-22T05:06:49.455Z,19.70
2017-11-22T05:07:54.812Z,19.70
2017-11-22T05:08:59.889Z,19.70
2017-11-22T05:10:05.947Z,19.60
2017-11-22T05:11:10.748Z,19.60
2017-11-22T05:12:17.466Z,19.70
2017-11-22T05:13:22.763Z,19.70
2017-11-22T05:14:27.905Z,19.60
2017-11-22T05:15:32.953Z,19.60
2017-11-22T05:16:37.935Z,19.70
2017-11-22T05:17:43.020Z,19.70
2017-11-22T05:18:48.148Z,19.70
2017-11-22T05:19:53.230Z,19.60
2017-11-22T05:20:58.464Z,19.60
2017-11-22T05:22:03.891Z,19.70
2017-11-22T05:23:08.846Z,19.60
2017-11-22T05:24:15.911Z,19.70
2017-11-22T05:25:20.873Z,19.60
2017-11-22T05:26:26.026Z,19.60
2017-11-22T05:27:31.072Z,19.60
2017-11-22T05:28:35.987Z,19.60
2017-11-22T05:29:41.347Z,19.60
2017-11-22T05:30:46.677Z,19.60
2017-11-22T05:31:52.146Z,19.60
2017-11-22T05:32:57.302Z,19.60
2017-11-22T05:34:03.142Z,19.60
2017-11-22T05:35:08.012Z,19.60
2017-11-22T05:36:12.891Z,19.60
2017-11-22T05:37:17.927Z,19.60
2017-11-22T05:38:23.347Z,19.60
2017-11-22T05:39:28.572Z,19.50
2017-11-22T05:40:33.643Z,19.60
2017-11-22T05:41:38.463Z,19.50
2017-11-22T05:42:43.560Z,19.50
2017-11-22T05:43:48.405Z,19.50
2017-11-22T05:44:53.475Z,19.50
2017-11-22T05:45:58.770Z,19.60
2017-11-22T05:47:05.200Z,19.60
2017-11-22T05:48:10.573Z,19.60
2017-11-22T05:49:15.700Z,19.60
2017-11-22T05:50:20.814Z,19.60
2017-11-22T05:51:26.903Z,19.60
2017-11-22T05:52:32.175Z,19.60
2017-11-22T05:53:37.881Z,19.50
2017-11-22T05:54:43.120Z,19.40
2017-11-22T05:55:49.010Z,19.40
2017-11-22T05:56:54.931Z,19.30
2017-11-22T05:57:59.919Z,19.20
2017-11-22T05:59:05.049Z,19.20
2017-11-22T06:00:10.308Z,19.20
2017-11-22T06:01:15.481Z,19.10
2017-11-22T06:02:20.705Z,19.10
2017-11-22T06:03:25.666Z,19.10
2017-11-22T06:04:30.802Z,19.00
2017-11-22T06:05:36.045Z,19.00
2017-11-22T06:06:41.778Z,19.00
2017-11-22T06:07:47.504Z,19.00
2017-11-22T06:08:53.160Z,19.00
2017-11-22T06:09:58.113Z,19.00
2017-11-22T06:11:03.414Z,19.00
2017-11-22T06:12:08.913Z,19.10
2017-11-22T06:13:14.165Z,19.10
2017-11-22T06:14:19.111Z,19.10
2017-11-22T06:15:24.329Z,19.10
2017-11-22T06:16:29.592Z,19.20
2017-11-22T06:17:34.550Z,19.20
2017-11-22T06:18:39.788Z,19.20
2017-11-22T06:19:46.862Z,19.30
2017-11-22T06:20:52.007Z,19.30
2017-11-22T06:21:57.032Z,19.30
2017-11-22T06:23:02.394Z,19.40
2017-11-22T06:24:07.806Z,19.40
2017-11-22T06:25:13.158Z,19.50
2017-11-22T06:26:19.409Z,19.50
2017-11-22T06:27:25.052Z,19.50
2017-11-22T06:28:30.176Z,19.70
2017-11-22T06:29:36.380Z,19.60
2017-11-22T06:30:41.828Z,19.60
2017-11-22T06:31:47.297Z,19.70
2017-11-22T06:32:52.777Z,19.70
2017-11-22T06:33:58.234Z,19.70
2017-11-22T06:35:05.239Z,19.80
2017-11-22T06:36:10.768Z,19.80
2017-11-22T06:37:16.316Z,19.80
2017-11-22T06:38:21.751Z,19.80
2017-11-22T06:39:26.980Z,19.80
2017-11-22T06:40:32.386Z,19.90
2017-11-22T06:41:38.228Z,19.90
2017-11-22T06:42:43.634Z,19.90
2017-11-22T06:43:48.997Z,19.90
2017-11-22T06:44:54.403Z,20.00
2017-11-22T06:45:59.676Z,20.00
2017-11-22T06:47:04.975Z,20.00
2017-11-22T06:48:10.302Z,20.00
2017-11-22T06:49:15.748Z,20.00
2017-11-22T06:50:21.320Z,20.00
2017-11-22T06:51:27.032Z,20.00
2017-11-22T06:52:32.542Z,20.00
2017-11-22T06:53:37.843Z,20.00
2017-11-22T06:54:43.325Z,20.00
2017-11-22T06:55:49.306Z,20.00
2017-11-22T06:56:54.408Z,20.00
2017-11-22T06:57:59.561Z,20.00
2017-11-22T06:59:05.908Z,20.00
2017-11-22T07:00:12.033Z,20.00
2017-11-22T07:01:17.337Z,20.00
2017-11-22T07:02:22.807Z,20.00
2017-11-22T07:03:28.015Z,20.00
2017-11-22T07:04:33.292Z,20.10
2017-11-22T07:05:38.457Z,20.10
2017-11-22T07:06:43.666Z,20.10
2017-11-22T07:07:48.822Z,20.00
2017-11-22T07:08:54.367Z,20.00
2017-11-22T07:09:59.891Z,20.00
2017-11-22T07:11:05.271Z,20.00
2017-11-22T07:12:10.710Z,20.00
2017-11-22T07:13:16.558Z,20.00
2017-11-22T07:14:22.499Z,20.00
2017-11-22T07:15:27.975Z,19.90
2017-11-22T07:16:33.098Z,19.90
2017-11-22T07:17:38.740Z,19.90
2017-11-22T07:18:44.595Z,19.90
2017-11-22T07:19:50.052Z,19.90
2017-11-22T07:20:55.084Z,19.90
2017-11-22T07:22:00.061Z,19.90
2017-11-22T07:23:05.300Z,19.90
2017-11-22T07:24:12.419Z,19.90
2017-11-22T07:25:19.280Z,19.90
2017-11-22T07:26:24.872Z,19.90
2017-11-22T07:27:30.153Z,19.90
2017-11-22T07:28:35.494Z,19.90
2017-11-22T07:29:40.779Z,19.80
2017-11-22T07:30:46.125Z,19.90
2017-11-22T07:31:52.047Z,19.80
2017-11-22T07:32:57.416Z,19.90
2017-11-22T07:34:02.700Z,19.90
2017-11-22T07:35:07.786Z,19.80
2017-11-22T07:36:13.136Z,19.80
2017-11-22T07:37:19.080Z,19.90
2017-11-22T07:38:24.850Z,19.80
2017-11-22T07:39:31.951Z,19.90
2017-11-22T07:40:37.411Z,19.80
2017-11-22T07:41:43.187Z,19.90
2017-11-22T07:42:48.599Z,19.80
2017-11-22T07:43:53.473Z,19.80
2017-11-22T07:44:58.805Z,19.80
2017-11-22T07:46:04.065Z,19.80
2017-11-22T07:47:09.905Z,19.90
2017-11-22T07:48:15.617Z,19.80
2017-11-22T07:49:20.991Z,19.80
2017-11-22T07:50:26.311Z,19.90
2017-11-22T07:51:31.339Z,19.80
2017-11-22T07:52:36.427Z,19.80
2017-11-22T07:53:41.777Z,19.80
2017-11-22T07:54:48.135Z,19.90
2017-11-22T07:55:54.888Z,19.80
2017-11-22T07:57:00.093Z,19.80
2017-11-22T07:58:05.237Z,19.80
2017-11-22T07:59:10.670Z,19.90
2017-11-22T08:00:16.199Z,19.80
2017-11-22T08:01:21.307Z,19.90
2017-11-22T08:02:26.383Z,19.90
2017-11-22T08:03:31.669Z,19.80
2017-11-22T08:04:36.609Z,19.80
2017-11-22T08:05:43.265Z,19.90
2017-11-22T08:06:48.473Z,19.90
2017-11-22T08:07:53.636Z,19.90
2017-11-22T08:08:58.941Z,19.90
2017-11-22T08:10:04.417Z,19.90
2017-11-22T08:11:09.855Z,20.00
2017-11-22T08:12:14.964Z,20.00
2017-11-22T08:13:20.096Z,20.00
2017-11-22T08:14:25.210Z,20.00
2017-11-22T08:15:30.487Z,20.00
2017-11-22T08:16:35.825Z,20.00
2017-11-22T08:17:40.986Z,20.00
2017-11-22T08:18:46.422Z,20.00
2017-11-22T08:19:52.169Z,20.00
2017-11-22T08:20:57.453Z,20.00
2017-11-22T08:22:03.133Z,19.90
2017-11-22T08:23:07.921Z,19.90
2017-11-22T08:24:13.143Z,19.90
2017-11-22T08:25:18.433Z,19.90
2017-11-22T08:26:23.767Z,19.90
2017-11-22T08:27:29.365Z,19.90
2017-11-22T08:28:35.598Z,19.90
2017-11-22T08:29:40.973Z,19.90
2017-11-22T08:30:46.314Z,19.90
2017-11-22T08:31:51.790Z,19.90
2017-11-22T08:32:58.037Z,19.80
2017-11-22T08:34:03.994Z,19.90
2017-11-22T08:35:09.180Z,19.90
2017-11-22T08:36:14.799Z,19.90
2017-11-22T08:37:20.251Z,19.90
2017-11-22T08:38:25.508Z,19.90
2017-11-22T08:39:31.428Z,20.00
2017-11-22T08:40:36.724Z,20.00
2017-11-22T08:41:41.993Z,20.00
2017-11-22T08:42:47.020Z,19.90
2017-11-22T08:43:52.960Z,20.00
2017-11-22T08:44:58.437Z,19.90
2017-11-22T08:46:04.279Z,19.90
2017-11-22T08:47:09.386Z,19.90
2017-11-22T08:48:14.794Z,19.90
2017-11-22T08:49:20.293Z,20.00
2017-11-22T08:50:25.640Z,19.90
2017-11-22T08:51:31.040Z,20.00
2017-11-22T08:52:36.459Z,20.00
2017-11-22T08:53:41.619Z,20.00
2017-11-22T08:54:48.071Z,20.10
2017-11-22T08:55:53.385Z,20.10
2017-11-22T08:56:58.647Z,20.10
2017-11-22T08:58:04.010Z,20.10
2017-11-22T08:59:10.486Z,20.10
2017-11-22T09:00:18.731Z,20.10
2017-11-22T09:01:24.001Z,20.10
2017-11-22T09:02:29.147Z,20.10
2017-11-22T09:03:34.468Z,20.10
2017-11-22T09:04:39.908Z,20.10
2017-11-22T09:05:45.206Z,20.10
2017-11-22T09:06:50.628Z,20.10
2017-11-22T09:07:55.570Z,20.10
2017-11-22T09:09:01.231Z,20.10
2017-11-22T09:10:07.208Z,20.10
2017-11-22T09:11:12.412Z,20.10
2017-11-22T09:12:17.533Z,20.10
2017-11-22T09:13:22.865Z,20.10
2017-11-22T09:14:29.207Z,20.00
2017-11-22T09:15:34.744Z,20.10
2017-11-22T09:16:39.876Z,20.10
2017-11-22T09:17:45.064Z,20.10
2017-11-22T09:18:51.595Z,20.10
2017-11-22T09:19:57.081Z,20.10
2017-11-22T09:21:01.960Z,20.10
2017-11-22T09:22:07.211Z,20.10
2017-11-22T09:23:12.565Z,20.10
2017-11-22T09:24:18.005Z,20.10
2017-11-22T09:25:23.849Z,20.10
2017-11-22T09:26:30.100Z,20.10
2017-11-22T09:27:35.269Z,20.10
2017-11-22T09:28:40.572Z,20.10
2017-11-22T09:29:45.826Z,20.10
2017-11-22T09:30:51.130Z,20.10
2017-11-22T09:31:56.374Z,20.00
2017-11-22T09:33:01.903Z,20.10
2017-11-22T09:34:07.151Z,20.10
2017-11-22T09:35:12.322Z,20.10
2017-11-22T09:36:17.683Z,20.10
2017-11-22T09:37:23.061Z,20.00
2017-11-22T09:38:28.369Z,20.00
2017-11-22T09:39:33.387Z,20.00
2017-11-22T09:40:38.715Z,20.00
2017-11-22T09:41:43.755Z,20.00
2017-11-22T09:42:49.087Z,20.00
2017-11-22T09:43:54.767Z,20.00
2017-11-22T09:45:00.130Z,20.00
2017-11-22T09:46:05.200Z,20.00
2017-11-22T09:47:11.009Z,20.00
2017-11-22T09:48:16.985Z,20.00
2017-11-22T09:49:22.672Z,20.00
2017-11-22T09:50:27.672Z,20.00
2017-11-22T09:51:32.922Z,20.00
2017-11-22T09:52:38.196Z,20.00
2017-11-22T09:53:43.583Z,20.00
2017-11-22T09:54:48.824Z,20.00
2017-11-22T09:55:54.694Z,20.00
2017-11-22T09:57:00.079Z,20.00
2017-11-22T09:58:05.115Z,20.00
2017-11-22T09:59:11.009Z,20.00
2017-11-22T10:00:16.739Z,20.00
2017-11-22T10:01:22.072Z,20.00
2017-11-22T10:02:27.150Z,20.00
2017-11-22T10:03:31.953Z,20.00
2017-11-22T10:04:36.998Z,20.00
2017-11-22T10:05:42.233Z,20.00
2017-11-22T10:06:47.080Z,20.00
2017-11-22T10:07:52.275Z,20.00
2017-11-22T10:08:57.133Z,20.00
2017-11-22T10:10:02.736Z,20.00
2017-11-22T10:11:08.127Z,20.00
2017-11-22T10:12:14.110Z,20.00
2017-11-22T10:13:19.434Z,20.00
2017-11-22T10:14:25.009Z,20.00
2017-11-22T10:15:31.194Z,20.00
2017-11-22T10:16:36.491Z,20.00
2017-11-22T10:17:41.758Z,20.00
2017-11-22T10:18:47.171Z,20.00
2017-11-22T10:19:52.716Z,20.00
2017-11-22T10:20:58.614Z,20.00
2017-11-22T10:22:04.759Z,19.90
2017-11-22T10:23:09.891Z,20.00
2017-11-22T10:24:15.559Z,20.00
2017-11-22T10:25:20.813Z,20.00
2017-11-22T10:26:26.915Z,20.10
2017-11-22T10:27:32.767Z,20.10
2017-11-22T10:28:38.600Z,20.10
2017-11-22T10:29:44.251Z,20.10
2017-11-22T10:30:50.443Z,20.10
2017-11-22T10:31:55.926Z,20.10
2017-11-22T10:33:01.909Z,20.10
2017-11-22T10:34:07.488Z,20.10
2017-11-22T10:35:12.881Z,20.20
2017-11-22T10:36:18.167Z,20.10
2017-11-22T10:37:24.357Z,20.10
2017-11-22T10:38:30.153Z,20.20
2017-11-22T10:39:36.558Z,20.10
2017-11-22T10:40:43.447Z,20.20
2017-11-22T10:41:49.968Z,20.10
2017-11-22T10:42:56.136Z,20.20
2017-11-22T10:44:02.371Z,20.20
2017-11-22T10:45:07.842Z,20.20
2017-11-22T10:46:14.155Z,20.20
2017-11-22T10:47:19.696Z,20.20
2017-11-22T10:48:25.533Z,20.20
2017-11-22T10:49:31.528Z,20.20
2017-11-22T10:50:37.164Z,20.20
2017-11-22T10:51:43.039Z,20.20
2017-11-22T10:52:48.541Z,20.20
2017-11-22T10:53:54.339Z,20.20
2017-11-22T10:54:59.761Z,20.20
2017-11-22T10:56:05.145Z,20.20
2017-11-22T10:57:10.865Z,20.20
2017-11-22T10:58:16.768Z,20.20
2017-11-22T10:59:22.036Z,20.30
2017-11-22T11:00:27.473Z,20.20
2017-11-22T11:01:33.978Z,20.20
2017-11-22T11:02:39.648Z,20.20
2017-11-22T11:03:45.219Z,20.20
2017-11-22T11:04:50.653Z,20.20
2017-11-22T11:05:56.074Z,20.30
2017-11-22T11:07:01.574Z,20.20
2017-11-22T11:08:07.001Z,20.20
2017-11-22T11:09:13.512Z,20.20
2017-11-22T11:10:19.006Z,20.20
2017-11-22T11:11:24.451Z,20.20
2017-11-22T11:12:30.204Z,20.20
2017-11-22T11:13:35.515Z,20.20
2017-11-22T11:14:41.115Z,20.20
2017-11-22T11:15:47.008Z,20.20
2017-11-22T11:16:53.211Z,20.20
2017-11-22T11:17:58.643Z,20.20
2017-11-22T11:19:04.889Z,20.20
2017-11-22T11:20:10.611Z,20.20
2017-11-22T11:21:16.142Z,20.20
2017-11-22T11:22:21.484Z,20.20
2017-11-22T11:23:27.072Z,20.20
2017-11-22T11:24:32.753Z,20.20
2017-11-22T11:25:38.149Z,20.20
2017-11-22T11:26:43.744Z,20.20
2017-11-22T11:27:49.017Z,20.20
2017-11-22T11:28:54.670Z,20.20
2017-11-22T11:30:00.540Z,20.20
2017-11-22T11:31:06.285Z,20.20
2017-11-22T11:32:12.959Z,20.20
2017-11-22T11:33:18.238Z,20.20
2017-11-22T11:34:24.626Z,20.20
2017-11-22T11:35:30.457Z,20.20
2017-11-22T11:36:36.062Z,20.20
2017-11-22T11:37:41.415Z,20.20
2017-11-22T11:38:47.309Z,20.20
2017-11-22T11:39:53.616Z,20.20
2017-11-22T11:40:59.237Z,20.20
2017-11-22T11:42:04.893Z,20.10
2017-11-22T11:43:11.553Z,20.10
2017-11-22T11:44:16.767Z,20.20
2017-11-22T11:45:23.548Z,20.10
2017-11-22T11:46:28.932Z,20.10
2017-11-22T11:47:34.644Z,20.10
2017-11-22T11:48:40.478Z,20.10
2017-11-22T11:49:46.549Z,20.10
2017-11-22T11:50:52.673Z,20.10
2017-11-22T11:51:58.500Z,20.10
2017-11-22T11:53:04.259Z,20.10
2017-11-22T11:54:09.711Z,20.10
2017-11-22T11:55:14.840Z,20.10
2017-11-22T11:56:20.590Z,20.10
2017-11-22T11:57:26.329Z,20.10
2017-11-22T11:58:31.949Z,20.10
2017-11-22T11:59:37.310Z,20.10
2017-11-22T12:00:42.640Z,20.10
2017-11-22T12:01:48.392Z,20.10
2017-11-22T12:02:54.264Z,20.00
2017-11-22T12:03:59.496Z,20.00
2017-11-22T12:05:06.397Z,20.10
2017-11-22T12:06:12.004Z,20.10
2017-11-22T12:07:17.893Z,20.00
2017-11-22T12:08:24.042Z,20.00
2017-11-22T12:09:30.499Z,20.00
2017-11-22T12:10:36.749Z,20.00
2017-11-22T12:11:42.369Z,20.10
2017-11-22T12:12:47.601Z,20.00
2017-11-22T12:13:53.942Z,20.10
2017-11-22T12:15:00.770Z,20.00
2017-11-22T12:16:07.683Z,20.10
2017-11-22T12:17:13.372Z,20.10
2017-11-22T12:18:18.225Z,20.10
2017-11-22T12:19:24.540Z,20.10
2017-11-22T12:20:31.056Z,20.10
2017-11-22T12:21:37.453Z,20.10
2017-11-22T12:22:43.645Z,20.20
2017-11-22T12:23:50.068Z,20.20
2017-11-22T12:24:56.591Z,20.20
2017-11-22T12:26:02.881Z,20.20
2017-11-22T12:27:08.644Z,20.30
2017-11-22T12:28:14.534Z,20.30
2017-11-22T12:29:19.702Z,20.30
2017-11-22T12:30:26.248Z,20.30
2017-11-22T12:31:32.091Z,20.30
2017-11-22T12:32:38.623Z,20.30
2017-11-22T12:33:44.483Z,20.30
2017-11-22T12:34:50.206Z,20.30
2017-11-22T12:35:55.884Z,20.30
2017-11-22T12:37:01.447Z,20.30
2017-11-22T12:38:07.048Z,20.30
2017-11-22T12:39:12.872Z,20.30
2017-11-22T12:40:18.603Z,20.30
2017-11-22T12:41:23.771Z,20.30
2017-11-22T12:42:28.745Z,20.30
2017-11-22T12:43:34.085Z,20.30
2017-11-22T12:44:39.500Z,20.30
2017-11-22T12:45:46.107Z,20.30
2017-11-22T12:46:52.018Z,20.30
2017-11-22T12:47:58.419Z,20.30
2017-11-22T12:49:04.338Z,20.30
2017-11-22T12:50:10.034Z,20.30
2017-11-22T12:51:15.606Z,20.30
2017-11-22T12:52:21.691Z,20.30
2017-11-22T12:53:27.462Z,20.30
2017-11-22T12:54:33.343Z,20.40
2017-11-22T12:55:39.086Z,20.30
2017-11-22T12:56:44.821Z,20.30
2017-11-22T12:57:50.540Z,20.30
2017-11-22T12:58:56.008Z,20.30
2017-11-22T13:00:01.024Z,20.30
2017-11-22T13:01:06.686Z,20.40
2017-11-22T13:02:12.452Z,20.30
2017-11-22T13:03:18.806Z,20.30
2017-11-22T13:04:25.292Z,20.30
2017-11-22T13:05:30.586Z,20.30
2017-11-22T13:06:36.068Z,20.30
2017-11-22T13:07:41.744Z,20.30
2017-11-22T13:08:47.270Z,20.30
2017-11-22T13:09:52.916Z,20.30
2017-11-22T13:10:59.074Z,20.30
2017-11-22T13:12:04.813Z,20.30
2017-11-22T13:13:10.555Z,20.40
2017-11-22T13:14:15.824Z,20.30
2017-11-22T13:15:20.897Z,20.40
2017-11-22T13:16:26.133Z,20.40
2017-11-22T13:17:31.449Z,20.30
2017-11-22T13:18:36.626Z,20.40
2017-11-22T13:19:41.840Z,20.40
2017-11-22T13:20:47.348Z,20.40
2017-11-22T13:21:52.970Z,20.40
2017-11-22T13:22:59.543Z,20.30
2017-11-22T13:24:05.070Z,20.40
2017-11-22T13:25:10.356Z,20.30
2017-11-22T13:26:15.731Z,20.30
2017-11-22T13:27:21.661Z,20.30
2017-11-22T13:28:27.636Z,20.30
2017-11-22T13:29:33.320Z,20.30
2017-11-22T13:30:38.827Z,20.30
2017-11-22T13:31:44.946Z,20.30
2017-11-22T13:32:50.377Z,20.30
2017-11-22T13:33:55.485Z,20.30
2017-11-22T13:35:01.282Z,20.30
2017-11-22T13:36:06.855Z,20.30
2017-11-22T13:37:12.603Z,20.30
2017-11-22T13:38:19.385Z,20.30
2017-11-22T13:39:25.381Z,20.30
2017-11-22T13:40:31.538Z,20.30
2017-11-22T13:41:36.486Z,20.40
2017-11-22T13:42:41.906Z,20.30
2017-11-22T13:43:47.672Z,20.30
2017-11-22T13:44:53.529Z,20.30
2017-11-22T13:45:58.975Z,20.30
2017-11-22T13:47:05.144Z,20.30
2017-11-22T13:48:10.442Z,20.30
2017-11-22T13:49:15.933Z,20.20
2017-11-22T13:50:21.517Z,20.20
2017-11-22T13:51:26.879Z,20.20
2017-11-22T13:52:32.946Z,20.20
2017-11-22T13:53:39.378Z,20.10
2017-11-22T13:54:44.713Z,20.20
2017-11-22T13:55:50.292Z,20.20
2017-11-22T13:56:55.879Z,20.20
2017-11-22T13:58:02.333Z,20.20
2017-11-22T13:59:07.675Z,20.20
2017-11-22T14:00:13.073Z,20.30
2017-11-22T14:01:18.727Z,20.30